createdAt,value
2023-05-05T00:02:04.072Z,100460.69
2023-05-05T00:04:30.456Z,100448.28
2023-05-05T00:06:57.106Z,100459.81
2023-05-05T00:09:23.562Z,100454.47
2023-05-05T00:11:49.930Z,100450.03
2023-05-05T00:14:16.369Z,100446.44
2023-05-05T00:16:43.035Z,100452.66
2023-05-05T00:19:12.094Z,100458.88
2023-05-05T00:21:38.457Z,100460.63
2023-05-05T00:24:05.215Z,100460.63
2023-05-05T00:26:33.775Z,100466.84
2023-05-05T00:29:00.133Z,100453.53
2023-05-05T00:31:26.844Z,100453.53
2023-05-05T00:33:55.676Z,100444.66
2023-05-05T00:36:22.085Z,100445.53
2023-05-05T00:38:48.376Z,100440.22
2023-05-05T00:41:14.696Z,100444.69
2023-05-05T00:43:41.033Z,100440.25
2023-05-05T00:46:21.902Z,100436.69
2023-05-05T00:48:48.484Z,100432.25
2023-05-05T00:51:16.600Z,100426.91
2023-05-05T00:53:45.093Z,100429.53
2023-05-05T00:56:16.670Z,100418.81
2023-05-05T00:58:43.615Z,100424.22
2023-05-05T01:01:12.022Z,100418.84
2023-05-05T01:03:40.017Z,100416.13
2023-05-05T01:06:27.893Z,100408.09
2023-05-05T01:09:23.891Z,100393.91
2023-05-05T01:12:13.013Z,100388.63
2023-05-05T01:14:44.008Z,100385.97
2023-05-05T01:17:17.175Z,100397.47
2023-05-05T01:20:09.104Z,100394.72
2023-05-05T01:22:45.218Z,100396.53
2023-05-05T01:25:49.010Z,100407.19
2023-05-05T01:28:31.075Z,100414.16
2023-05-05T01:31:06.353Z,100423.84
2023-05-05T01:33:40.740Z,100424.59
2023-05-05T01:36:13.237Z,100428.94
2023-05-05T01:38:42.940Z,100428.06
2023-05-05T01:41:17.342Z,100420.03
2023-05-05T01:43:50.180Z,100419.09
2023-05-05T01:46:19.035Z,100418.22
2023-05-05T01:48:48.033Z,100420.09
2023-05-05T01:51:17.468Z,100421.00
2023-05-05T01:53:44.101Z,100417.53
2023-05-05T01:56:12.046Z,100428.16
2023-05-05T01:58:41.624Z,100415.88
2023-05-05T02:01:08.988Z,100411.41
2023-05-05T02:03:37.542Z,100417.63
2023-05-05T02:06:05.582Z,100430.84
2023-05-05T02:08:34.545Z,100435.25
2023-05-05T02:11:01.351Z,100432.56
2023-05-05T02:13:32.326Z,100436.97
2023-05-05T02:15:59.984Z,100428.91
2023-05-05T02:18:28.377Z,100434.16
2023-05-05T02:20:54.835Z,100440.28
2023-05-05T02:23:21.314Z,100433.28
2023-05-05T02:25:51.050Z,100429.75
2023-05-05T02:28:21.466Z,100443.00
2023-05-05T02:30:55.433Z,100457.06
2023-05-05T02:33:23.489Z,100444.56
2023-05-05T02:35:51.867Z,100450.66
2023-05-05T02:38:19.530Z,100446.16
2023-05-05T02:40:48.070Z,100453.22
2023-05-05T02:43:19.410Z,100449.56
2023-05-05T02:45:46.256Z,100448.94
2023-05-05T02:48:13.072Z,100441.94
2023-05-05T02:50:39.594Z,100449.91
2023-05-05T02:53:06.141Z,100463.19
2023-05-05T02:55:51.848Z,100444.59
2023-05-05T02:58:44.343Z,100460.53
2023-05-05T03:01:49.108Z,100462.34
2023-05-05T03:04:27.912Z,100465.88
2023-05-05T03:06:59.380Z,100464.09
2023-05-05T03:09:27.607Z,100462.31
2023-05-05T03:12:00.787Z,100467.69
2023-05-05T03:14:30.631Z,100466.88
2023-05-05T03:17:00.443Z,100459.75
2023-05-05T03:19:28.447Z,100462.38
2023-05-05T03:21:55.153Z,100457.97
2023-05-05T03:24:21.603Z,100457.91
2023-05-05T03:26:49.489Z,100461.34
2023-05-05T03:29:16.316Z,100452.34
2023-05-05T03:31:43.011Z,100463.72
2023-05-05T03:34:09.404Z,100467.16
2023-05-05T03:36:36.073Z,100464.38
2023-05-05T03:39:02.457Z,100466.94
2023-05-05T03:41:28.815Z,100460.69
2023-05-05T03:43:55.152Z,100463.19
2023-05-05T03:46:21.472Z,100462.22
2023-05-05T03:48:48.544Z,100453.31
2023-05-05T03:51:15.431Z,100458.56
2023-05-05T03:53:41.871Z,100455.84
2023-05-05T03:56:08.441Z,100463.78
2023-05-05T03:58:34.780Z,100469.19
2023-05-05T04:01:01.689Z,100456.72
2023-05-05T04:03:28.121Z,100463.66
2023-05-05T04:05:54.566Z,100461.84
2023-05-05T04:08:20.911Z,100467.97
2023-05-05T04:10:47.357Z,100467.09
2023-05-05T04:13:13.810Z,100473.31
2023-05-05T04:15:45.370Z,100480.41
2023-05-05T04:18:12.089Z,100475.25
2023-05-05T04:20:38.483Z,100482.56
2023-05-05T04:23:04.861Z,100479.44
2023-05-05T04:25:31.456Z,100482.34
2023-05-05T04:27:57.744Z,100483.50
2023-05-05T04:30:24.082Z,100476.47
2023-05-05T04:32:50.414Z,100483.72
2023-05-05T04:35:16.808Z,100480.22
2023-05-05T04:37:43.135Z,100486.50
2023-05-05T04:40:10.502Z,100492.75
2023-05-05T04:42:37.529Z,100482.19
2023-05-05T04:45:04.366Z,100478.72
2023-05-05T04:47:30.726Z,100471.63
2023-05-05T04:49:57.130Z,100477.81
2023-05-05T04:52:23.409Z,100481.28
2023-05-05T04:54:49.782Z,100493.63
2023-05-05T04:57:16.080Z,100492.75
2023-05-05T04:59:42.475Z,100487.44
2023-05-05T05:02:08.817Z,100498.06
2023-05-05T05:04:35.157Z,100499.84
2023-05-05T05:07:01.590Z,100484.91
2023-05-05T05:09:27.951Z,100494.69
2023-05-05T05:11:54.331Z,100485.03
2023-05-05T05:14:20.690Z,100493.03
2023-05-05T05:16:51.017Z,100487.81
2023-05-05T05:19:17.411Z,100496.75
2023-05-05T05:21:43.712Z,100501.25
2023-05-05T05:24:11.395Z,100504.94
2023-05-05T05:26:38.353Z,100504.97
2023-05-05T05:29:04.854Z,100513.06
2023-05-05T05:31:31.266Z,100509.56
2023-05-05T05:33:57.658Z,100512.22
2023-05-05T05:36:24.048Z,100505.16
2023-05-05T05:38:53.389Z,100507.78
2023-05-05T05:41:19.714Z,100512.19
2023-05-05T05:43:46.113Z,100514.84
2023-05-05T05:46:12.582Z,100517.47
2023-05-05T05:48:39.230Z,100519.22
2023-05-05T05:51:05.723Z,100522.84
2023-05-05T05:53:32.723Z,100523.72
2023-05-05T05:55:59.110Z,100526.44
2023-05-05T05:58:25.478Z,100526.41
2023-05-05T06:00:51.874Z,100523.72
2023-05-05T06:03:18.344Z,100521.94
2023-05-05T06:05:46.024Z,100530.84
2023-05-05T06:08:12.359Z,100533.50
2023-05-05T06:10:39.741Z,100533.47
2023-05-05T06:13:06.145Z,100529.88
2023-05-05T06:15:32.451Z,100535.13
2023-05-05T06:17:58.875Z,100529.72
2023-05-05T06:20:25.198Z,100526.88
2023-05-05T06:22:51.545Z,100523.31
2023-05-05T06:25:17.850Z,100523.22
2023-05-05T06:27:44.190Z,100527.56
2023-05-05T06:30:11.426Z,100526.69
2023-05-05T06:32:37.923Z,100527.44
2023-05-05T06:35:04.677Z,100529.94
2023-05-05T06:37:31.036Z,100528.91
2023-05-05T06:39:57.386Z,100529.53
2023-05-05T06:42:23.725Z,100529.34
2023-05-05T06:44:50.211Z,100542.53
2023-05-05T06:47:16.621Z,100532.47
2023-05-05T06:49:42.984Z,100533.91
2023-05-05T06:52:09.326Z,100536.28
2023-05-05T06:54:35.754Z,100535.78
2023-05-05T06:57:02.106Z,100539.59
2023-05-05T06:59:28.464Z,100540.09
2023-05-05T07:01:54.842Z,100539.03
2023-05-05T07:04:21.521Z,100539.25
2023-05-05T07:06:47.881Z,100535.59
2023-05-05T07:09:16.383Z,100539.06
2023-05-05T07:11:43.376Z,100533.75
2023-05-05T07:14:09.706Z,100545.97
2023-05-05T07:16:37.209Z,100546.84
2023-05-05T07:19:06.075Z,100546.88
2023-05-05T07:21:33.785Z,100541.69
2023-05-05T07:24:00.997Z,100541.97
2023-05-05T07:26:27.468Z,100542.34
2023-05-05T07:28:55.894Z,100542.53
2023-05-05T07:31:22.214Z,100539.31
2023-05-05T07:33:49.410Z,100540.50
2023-05-05T07:36:19.486Z,100536.88
2023-05-05T07:38:45.813Z,100540.63
2023-05-05T07:41:12.922Z,100544.13
2023-05-05T07:43:44.256Z,100549.06
2023-05-05T07:46:11.077Z,100543.88
2023-05-05T07:48:37.504Z,100544.84
2023-05-05T07:51:03.920Z,100548.31
2023-05-05T07:53:30.763Z,100548.13
2023-05-05T07:55:57.085Z,100553.88
2023-05-05T07:58:23.440Z,100536.72
2023-05-05T08:00:51.023Z,100539.91
2023-05-05T08:03:19.865Z,100534.94
2023-05-05T08:05:46.763Z,100541.66
2023-05-05T08:08:13.081Z,100547.66
2023-05-05T08:10:39.372Z,100539.41
2023-05-05T08:13:05.887Z,100530.03
2023-05-05T08:15:32.358Z,100527.97
2023-05-05T08:17:58.675Z,100534.06
2023-05-05T08:22:54.079Z,100544.19
2023-05-05T08:25:20.492Z,100535.28
2023-05-05T08:27:46.830Z,100530.84
2023-05-05T08:30:13.469Z,100538.47
2023-05-05T08:32:40.006Z,100535.88
2023-05-05T08:35:07.437Z,100535.69
2023-05-05T08:37:34.207Z,100535.63
2023-05-05T08:40:00.678Z,100531.25
2023-05-05T08:42:37.112Z,100528.66
2023-05-05T08:45:05.725Z,100533.91
2023-05-05T08:47:32.696Z,100527.81
2023-05-05T08:49:59.240Z,100528.38
2023-05-05T08:52:31.662Z,100520.81
2023-05-05T08:55:12.595Z,100525.72
2023-05-05T08:57:54.441Z,100517.06
2023-05-05T09:00:21.189Z,100512.09
2023-05-05T09:02:48.366Z,100515.31
2023-05-05T09:05:15.297Z,100510.00
2023-05-05T09:07:43.558Z,100513.06
2023-05-05T09:10:11.635Z,100506.09
2023-05-05T09:12:41.973Z,100508.53
2023-05-05T09:15:11.456Z,100509.69
2023-05-05T09:17:38.855Z,100504.09
2023-05-05T09:20:13.424Z,100501.81
2023-05-05T09:22:41.556Z,100498.94
2023-05-05T09:25:15.906Z,100499.00
2023-05-05T09:27:49.614Z,100505.81
2023-05-05T09:30:18.245Z,100503.19
2023-05-05T09:32:44.813Z,100502.84
2023-05-05T09:35:11.372Z,100494.84
2023-05-05T09:37:38.523Z,100497.25
2023-05-05T09:40:05.948Z,100495.19
2023-05-05T09:42:32.264Z,100499.88
2023-05-05T09:44:59.938Z,100488.63
2023-05-05T09:47:37.353Z,100484.16
2023-05-05T09:50:04.189Z,100489.72
2023-05-05T09:52:30.975Z,100490.03
2023-05-05T09:54:57.566Z,100485.47
2023-05-05T09:57:33.101Z,100485.81
2023-05-05T10:00:01.442Z,100476.97
2023-05-05T10:02:37.231Z,100470.78
2023-05-05T10:05:12.990Z,100478.91
2023-05-05T10:07:41.521Z,100473.94
2023-05-05T10:10:11.494Z,100474.59
2023-05-05T10:12:38.913Z,100476.91
2023-05-05T10:15:07.406Z,100477.97
2023-05-05T10:17:57.909Z,100474.97
2023-05-05T10:20:33.301Z,100471.75
2023-05-05T10:23:02.403Z,100471.94
2023-05-05T10:25:33.159Z,100462.00
2023-05-05T10:28:02.349Z,100461.75
2023-05-05T10:30:31.768Z,100462.00
2023-05-05T10:33:30.032Z,100469.22
2023-05-05T10:36:01.604Z,100459.09
2023-05-05T10:38:30.630Z,100470.59
2023-05-05T10:41:01.984Z,100458.03
2023-05-05T10:43:30.593Z,100457.50
2023-05-05T10:45:58.067Z,100452.31
2023-05-05T10:49:04.635Z,100454.47
2023-05-05T10:51:44.197Z,100439.25
2023-05-05T10:54:20.583Z,100451.47
2023-05-05T10:56:47.204Z,100457.03
2023-05-05T10:59:38.692Z,100449.34
2023-05-05T11:02:25.141Z,100452.97
2023-05-05T11:05:17.950Z,100440.03
2023-05-05T11:07:46.359Z,100438.38
2023-05-05T11:10:14.940Z,100429.81
2023-05-05T11:13:03.060Z,100426.06
2023-05-05T11:15:29.672Z,100429.69
2023-05-05T11:18:00.812Z,100428.72
2023-05-05T11:20:39.560Z,100422.66
2023-05-05T11:23:06.111Z,100423.19
2023-05-05T11:25:36.294Z,100423.16
2023-05-05T11:28:08.091Z,100407.72
2023-05-05T11:30:35.945Z,100412.94
2023-05-05T11:33:36.759Z,100406.75
2023-05-05T11:36:06.798Z,100402.69
2023-05-05T11:38:55.527Z,100400.19
2023-05-05T11:41:39.687Z,100404.50
2023-05-05T11:44:19.708Z,100399.09
2023-05-05T11:46:52.322Z,100389.56
2023-05-05T11:49:28.989Z,100386.88
2023-05-05T11:52:03.791Z,100384.25
2023-05-05T11:54:30.642Z,100385.03
2023-05-05T11:56:59.010Z,100384.13
2023-05-05T11:59:25.579Z,100387.28
2023-05-05T12:01:52.376Z,100391.53
2023-05-05T12:04:19.265Z,100386.13
2023-05-05T12:06:46.317Z,100386.06
2023-05-05T12:09:17.005Z,100385.00
2023-05-05T12:11:57.229Z,100390.13
2023-05-05T12:14:24.916Z,100383.00
2023-05-05T12:16:58.470Z,100382.25
2023-05-05T12:19:33.480Z,100391.28
2023-05-05T12:22:01.613Z,100377.72
2023-05-05T12:24:28.293Z,100388.13
2023-05-05T12:26:54.591Z,100382.81
2023-05-05T12:29:29.127Z,100379.66
2023-05-05T12:31:55.724Z,100387.75
2023-05-05T12:34:23.150Z,100391.28
2023-05-05T12:36:49.939Z,100390.13
2023-05-05T12:39:16.269Z,100377.00
2023-05-05T12:41:42.884Z,100384.38
2023-05-05T12:44:09.336Z,100378.47
2023-05-05T12:46:48.800Z,100377.06
2023-05-05T12:49:15.383Z,100360.78
2023-05-05T12:51:55.691Z,100376.00
2023-05-05T12:54:29.407Z,100366.69
2023-05-05T12:56:57.176Z,100367.44
2023-05-05T12:59:23.720Z,100367.97
2023-05-05T13:01:54.604Z,100361.19
2023-05-05T13:04:23.093Z,100370.75
2023-05-05T13:07:07.675Z,100353.72
2023-05-05T13:09:34.634Z,100351.00
2023-05-05T13:12:04.593Z,100349.41
2023-05-05T13:14:37.892Z,100345.06
2023-05-05T13:17:04.641Z,100334.28
2023-05-05T13:19:31.083Z,100329.81
2023-05-05T13:21:58.502Z,100326.09
2023-05-05T13:24:38.105Z,100321.97
2023-05-05T13:27:09.331Z,100320.94
2023-05-05T13:29:36.061Z,100319.59
2023-05-05T13:32:02.446Z,100307.03
2023-05-05T13:34:28.863Z,100314.91
2023-05-05T13:36:55.684Z,100308.69
2023-05-05T13:39:22.414Z,100318.69
2023-05-05T13:41:48.826Z,100310.25
2023-05-05T13:44:16.007Z,100317.16
2023-05-05T13:46:42.901Z,100310.41
2023-05-05T13:49:09.313Z,100305.94
2023-05-05T13:51:35.992Z,100306.16
2023-05-05T13:54:02.849Z,100308.38
2023-05-05T13:56:29.232Z,100299.06
2023-05-05T13:58:55.657Z,100308.41
2023-05-05T14:01:22.111Z,100316.00
2023-05-05T14:03:48.540Z,100309.28
2023-05-05T14:06:14.947Z,100313.09
2023-05-05T14:08:41.498Z,100307.78
2023-05-05T14:11:07.788Z,100314.25
2023-05-05T14:13:34.126Z,100313.31
2023-05-05T14:16:00.525Z,100313.97
2023-05-05T14:18:28.010Z,100303.16
2023-05-05T14:20:54.483Z,100304.03
2023-05-05T14:23:21.278Z,100299.03
2023-05-05T14:25:47.642Z,100299.91
2023-05-05T14:28:13.964Z,100302.97
2023-05-05T14:30:40.376Z,100302.19
2023-05-05T14:33:06.868Z,100301.28
2023-05-05T14:35:33.258Z,100305.50
2023-05-05T14:37:59.557Z,100313.88
2023-05-05T14:40:25.972Z,100330.38
2023-05-05T14:42:52.319Z,100348.88
2023-05-05T14:45:18.620Z,100376.97
2023-05-05T14:47:44.981Z,100396.78
2023-05-05T14:50:11.374Z,100410.34
2023-05-05T14:52:40.006Z,100433.34
2023-05-05T14:55:07.453Z,100433.00
2023-05-05T14:57:34.384Z,100424.78
2023-05-05T15:00:00.883Z,100416.41
2023-05-05T15:02:27.335Z,100413.75
2023-05-05T15:04:53.713Z,100406.63
2023-05-05T15:07:21.191Z,100392.75
2023-05-05T15:09:47.527Z,100382.34
2023-05-05T15:12:13.878Z,100379.75
2023-05-05T15:14:40.790Z,100383.28
2023-05-05T15:17:07.159Z,100384.22
2023-05-05T15:19:33.486Z,100388.59
2023-05-05T15:21:59.775Z,100382.25
2023-05-05T15:24:26.219Z,100375.69
2023-05-05T15:26:52.544Z,100375.31
2023-05-05T15:29:18.875Z,100377.50
2023-05-05T15:31:45.287Z,100389.31
2023-05-05T15:34:11.720Z,100380.31
2023-05-05T15:36:38.049Z,100376.13
2023-05-05T15:39:04.541Z,100377.59
2023-05-05T15:41:34.126Z,100366.88
2023-05-05T15:44:02.469Z,100368.34
2023-05-05T15:46:31.410Z,100376.34
2023-05-05T15:48:57.890Z,100370.31
2023-05-05T15:51:24.282Z,100371.13
2023-05-05T15:53:52.251Z,100371.94
2023-05-05T15:56:19.043Z,100371.13
2023-05-05T15:58:46.406Z,100370.88
2023-05-05T16:01:12.859Z,100374.69
2023-05-05T16:03:39.244Z,100380.91
2023-05-05T16:06:05.892Z,100375.47
2023-05-05T16:08:32.231Z,100381.69
2023-05-05T16:10:58.610Z,100375.56
2023-05-05T16:13:24.965Z,100370.47
2023-05-05T16:15:51.341Z,100384.97
2023-05-05T16:18:17.654Z,100383.19
2023-05-05T16:20:44.277Z,100392.03
2023-05-05T16:23:10.686Z,100372.31
2023-05-05T16:25:37.122Z,100379.25
2023-05-05T16:28:03.712Z,100380.09
2023-05-05T16:30:29.989Z,100375.63
2023-05-05T16:32:56.322Z,100375.47
2023-05-05T16:35:23.020Z,100380.56
2023-05-05T16:37:49.345Z,100380.09
2023-05-05T16:40:15.736Z,100367.00
2023-05-05T16:42:44.339Z,100380.78
2023-05-05T16:45:13.480Z,100363.75
2023-05-05T16:47:39.800Z,100365.41
2023-05-05T16:50:06.998Z,100370.78
2023-05-05T16:52:33.504Z,100363.56
2023-05-05T16:55:00.052Z,100353.94
2023-05-05T16:57:26.855Z,100363.16
2023-05-05T16:59:56.273Z,100364.16
2023-05-05T17:02:22.779Z,100358.00
2023-05-05T17:04:49.183Z,100359.69
2023-05-05T17:07:15.573Z,100361.50
2023-05-05T17:09:41.863Z,100361.66
2023-05-05T17:12:08.167Z,100360.88
2023-05-05T17:14:35.395Z,100370.78
2023-05-05T17:17:01.714Z,100377.16
2023-05-05T17:19:28.061Z,100381.81
2023-05-05T17:21:55.069Z,100388.28
2023-05-05T17:24:21.529Z,100381.97
2023-05-05T17:26:48.096Z,100382.09
2023-05-05T17:29:15.238Z,100382.81
2023-05-05T17:31:44.376Z,100390.72
2023-05-05T17:34:10.880Z,100377.00
2023-05-05T17:36:37.243Z,100383.84
2023-05-05T17:39:03.553Z,100384.41
2023-05-05T17:41:29.885Z,100385.16
2023-05-05T17:43:56.836Z,100386.00
2023-05-05T17:46:23.213Z,100382.63
2023-05-05T17:48:49.644Z,100384.47
2023-05-05T17:51:16.011Z,100390.69
2023-05-05T17:53:42.326Z,100375.75
2023-05-05T17:56:09.248Z,100387.63
2023-05-05T17:58:35.756Z,100385.94
2023-05-05T18:01:02.150Z,100399.63
2023-05-05T18:03:28.758Z,100393.56
2023-05-05T18:05:55.207Z,100390.22
2023-05-05T18:08:21.508Z,100394.91
2023-05-05T18:10:48.129Z,100397.75
2023-05-05T18:13:14.524Z,100395.31
2023-05-05T18:15:41.135Z,100403.56
2023-05-05T18:18:07.604Z,100409.16
2023-05-05T18:20:34.116Z,100409.34
2023-05-05T18:23:00.404Z,100405.97
2023-05-05T18:25:26.712Z,100410.59
2023-05-05T18:27:52.985Z,100400.03
2023-05-05T18:30:19.397Z,100398.31
2023-05-05T18:32:45.767Z,100408.25
2023-05-05T18:35:12.618Z,100424.34
2023-05-05T18:37:42.172Z,100427.91
2023-05-05T18:40:09.929Z,100428.03
2023-05-05T18:42:36.230Z,100429.03
2023-05-05T18:45:02.582Z,100432.63
2023-05-05T18:47:29.167Z,100432.78
2023-05-05T18:49:55.862Z,100428.47
2023-05-05T18:52:22.212Z,100424.06
2023-05-05T18:54:48.534Z,100416.09
2023-05-05T18:57:14.879Z,100416.97
2023-05-05T18:59:41.208Z,100420.59
2023-05-05T19:02:07.877Z,100416.16
2023-05-05T19:04:37.224Z,100423.22
2023-05-05T19:07:04.246Z,100425.88
2023-05-05T19:09:30.547Z,100430.47
2023-05-05T19:11:56.896Z,100442.00
2023-05-05T19:14:23.259Z,100442.09
2023-05-05T19:16:49.670Z,100446.59
2023-05-05T19:19:16.164Z,100444.09
2023-05-05T19:21:42.622Z,100438.84
2023-05-05T19:24:09.629Z,100435.25
2023-05-05T19:26:36.053Z,100445.09
2023-05-05T19:29:02.418Z,100450.41
2023-05-05T19:31:30.668Z,100443.38
2023-05-05T19:34:02.019Z,100445.34
2023-05-05T19:36:29.854Z,100450.88
2023-05-05T19:38:56.174Z,100445.69
2023-05-05T19:41:22.494Z,100452.09
2023-05-05T19:43:49.860Z,100458.44
2023-05-05T19:46:17.081Z,100460.34
2023-05-05T19:48:44.000Z,100467.47
2023-05-05T19:51:10.391Z,100467.53
2023-05-05T19:53:36.750Z,100467.56
2023-05-05T19:56:04.753Z,100463.16
2023-05-05T19:58:31.360Z,100472.97
2023-05-05T20:00:57.686Z,100470.31
2023-05-05T20:03:24.284Z,100472.13
2023-05-05T20:05:50.857Z,100470.38
2023-05-05T20:08:19.577Z,100470.38
2023-05-05T20:10:45.974Z,100463.28
2023-05-05T20:13:12.347Z,100458.91
2023-05-05T20:15:38.751Z,100462.44
2023-05-05T20:18:05.339Z,100465.16
2023-05-05T20:20:31.740Z,100466.06
2023-05-05T20:22:58.117Z,100462.47
2023-05-05T20:25:24.457Z,100465.16
2023-05-05T20:27:50.999Z,100482.03
2023-05-05T20:30:17.300Z,100477.59
2023-05-05T20:32:43.665Z,100484.69
2023-05-05T20:35:11.179Z,100480.28
2023-05-05T20:37:37.491Z,100484.69
2023-05-05T20:40:04.047Z,100482.03
2023-05-05T20:42:30.545Z,100491.78
2023-05-05T20:44:57.057Z,100484.69
2023-05-05T20:47:24.013Z,100482.00
2023-05-05T20:49:52.027Z,100488.19
2023-05-05T20:52:18.377Z,100496.19
2023-05-05T20:54:44.651Z,100497.97
2023-05-05T20:57:11.432Z,100497.06
2023-05-05T20:59:37.907Z,100510.38
2023-05-05T21:02:04.471Z,100507.72
2023-05-05T21:04:30.856Z,100505.03
2023-05-05T21:06:57.268Z,100505.03
2023-05-05T21:09:23.987Z,100506.81
2023-05-05T21:11:50.384Z,100496.16
2023-05-05T21:14:16.717Z,100497.94
2023-05-05T21:16:43.153Z,100491.72
2023-05-05T21:19:09.535Z,100498.84
2023-05-05T21:21:36.124Z,100496.19
2023-05-05T21:24:02.547Z,100495.31
2023-05-05T21:26:29.328Z,100502.41
2023-05-05T21:28:55.737Z,100499.75
2023-05-05T21:31:22.747Z,100494.41
2023-05-05T21:33:49.543Z,100507.75
2023-05-05T21:36:17.496Z,100508.66
2023-05-05T21:38:43.880Z,100502.44
2023-05-05T21:41:10.356Z,100502.44
2023-05-05T21:43:36.694Z,100504.22
2023-05-05T21:46:05.076Z,100505.13
2023-05-05T21:48:31.673Z,100505.13
2023-05-05T21:50:58.070Z,100504.25
2023-05-05T21:53:24.814Z,100510.50
2023-05-05T21:55:51.533Z,100514.00
2023-05-05T21:58:17.941Z,100506.00
2023-05-05T22:00:44.918Z,100512.22
2023-05-05T22:03:11.478Z,100505.13
2023-05-05T22:05:38.254Z,100508.66
2023-05-05T22:08:04.718Z,100494.47
2023-05-05T22:10:31.104Z,100503.31
2023-05-05T22:12:58.115Z,100503.28
2023-05-05T22:15:27.684Z,100505.94
2023-05-05T22:17:56.599Z,100497.88
2023-05-05T22:20:23.040Z,100498.72
2023-05-05T22:22:49.346Z,100496.03
2023-05-05T22:25:15.716Z,100506.56
2023-05-05T22:27:42.153Z,100500.34
2023-05-05T22:30:11.375Z,100509.19
2023-05-05T22:32:38.414Z,100510.94
2023-05-05T22:35:05.835Z,100514.47
2023-05-05T22:37:32.130Z,100512.72
2023-05-05T22:39:58.611Z,100518.97
2023-05-05T22:42:25.011Z,100518.19
2023-05-05T22:44:51.431Z,100527.09
2023-05-05T22:47:18.922Z,100527.13
2023-05-05T22:49:45.642Z,100532.47
2023-05-05T22:52:12.388Z,100530.72
2023-05-05T22:54:38.704Z,100528.94
2023-05-05T22:57:05.070Z,100533.34
2023-05-05T22:59:31.437Z,100520.00
2023-05-05T23:01:57.769Z,100532.38
2023-05-05T23:04:24.140Z,100527.91
2023-05-05T23:06:52.978Z,100539.31
2023-05-05T23:09:19.319Z,100521.56
2023-05-05T23:11:45.713Z,100523.31
2023-05-05T23:14:12.001Z,100519.81
2023-05-05T23:16:38.346Z,100519.81
2023-05-05T23:19:04.676Z,100521.56
2023-05-05T23:21:33.968Z,100530.41
2023-05-05T23:24:02.620Z,100514.50
2023-05-05T23:26:29.006Z,100518.03
2023-05-05T23:28:55.361Z,100518.88
2023-05-05T23:31:22.171Z,100517.06
2023-05-05T23:33:48.634Z,100517.94
2023-05-05T23:36:14.975Z,100516.16
2023-05-05T23:38:41.352Z,100515.19
2023-05-05T23:41:07.661Z,100517.84
2023-05-05T23:43:34.000Z,100516.97
2023-05-05T23:46:00.377Z,100519.63
2023-05-05T23:48:26.830Z,100518.75
2023-05-05T23:50:53.511Z,100522.25
2023-05-05T23:53:20.157Z,100518.66
2023-05-05T23:55:46.501Z,100523.94
2023-05-05T23:58:12.872Z,100522.19
